Nearby METAR Reports

 

KIAD - Wash Dc/Dulles, Virginia, USA
Distance from station: ESE 7mi, 11km
Updated: Sat, 18-Sep-2021 8:52pm EDT
Few Clouds
Few Clouds
 Wind from calm
Wind: Calm
Temperature: 73°F , 23°C
Dew Point: 68°F , 20°C
Humidity: 83%
Barometer: 30.07 inHg , 1018.3 hPa
Clouds: Few Clouds
Visibility: 10 miles , 16 km
Cloud details: Few Clouds 4000 ft
2021/09/19 00:52 KIAD 190052Z 00000KT 10SM FEW040 23/20 A3007 RMK AO2 SLP179 T02330200
KJYO - Leesburg/Godfrey, Virginia, USA
Distance from station: N 7mi, 12km
Updated: Sat, 18-Sep-2021 9:15pm EDT
Clear
Clear
 Wind from calm
Wind: Calm
Temperature: 73°F , 23°C
Dew Point: 72°F , 22°C
Humidity: 94%
Barometer: 30.09 inHg , 1019 hPa
Clouds: Clear
Visibility: 10 miles , 16 km
2021/09/19 01:15 KJYO 190115Z AUTO 00000KT 10SM CLR 23/22 A3009 RMK AO2
KHEF - Manassas Muni, Virginia, USA
Distance from station: S 17mi, 28km
Updated: Sat, 18-Sep-2021 8:56pm EDT
Clear
Clear
 Wind from calm
Wind: Calm
Temperature: 72°F , 22°C
Dew Point: 70°F , 21°C
Humidity: 94%
Barometer: 30.07 inHg , 1018.3 hPa
Clouds: Clear
Visibility: 10 miles , 16 km
2021/09/19 00:56 KHEF 190056Z 00000KT 10SM CLR 22/21 A3007 RMK AO2 SLP186 T02220211
 
KGAI - Gaithersburg, Maryland, USA
Distance from station: NE 26mi, 41km
Updated: Sat, 18-Sep-2021 8:56pm EDT
Clear
Clear
 Wind from calm
Wind: Calm
Temperature: 68°F , 20°C
Dew Point: 68°F , 20°C
Humidity: 100%
Barometer: 30.09 inHg , 1019 hPa
Clouds: Clear
Visibility: 10 miles , 16 km
2021/09/19 00:56 KGAI 190056Z AUTO 00000KT 10SM CLR 20/20 A3009 RMK AO2 SLP200 T02000200 PNO $
KDAA - Fort Belvoir/Dav, Virginia, USA
Distance from station: SE 27mi, 44km
Updated: Sat, 18-Sep-2021 8:56pm EDT
Clear
Clear
 Wind from calm
Wind: Calm
Temperature: 73°F , 23°C
Dew Point: 72°F , 22°C
Humidity: 94%
Barometer: 30.06 inHg , 1017.9 hPa
Clouds: Clear
Visibility: 10 miles , 16 km
2021/09/19 00:56 KDAA 190056Z AUTO 00000KT 10SM CLR 23/22 A3006 RMK AO2 SLP182 T02260219 $
KHWY - Warrenton, Virginia, USA
Distance from station: SSW 27mi, 44km
Updated: Sat, 18-Sep-2021 9:15pm EDT
Mist, Clear
Mist, Clear
 Wind from calm
Wind: Calm
Temperature: 70°F , 21°C
Dew Point: 66°F , 19°C
Humidity: 88%
Barometer: 30.08 inHg , 1018.6 hPa
Summary: Mist
Clouds: Clear
Visibility: 2 miles , 3 km
2021/09/19 01:15 KHWY 190115Z AUTO 00000KT 2SM BR CLR 21/19 A3008 RMK AO2 T02080193
 
KDCA - Washington/Natl, Washington D.c., USA
Distance from station: ESE 30mi, 48km
Updated: Sat, 18-Sep-2021 8:52pm EDT
Few Clouds
Few Clouds
 Wind from S
Wind: S 3 mph , 6 km/h
Temperature: 77°F , 25°C
Dew Point: 72°F , 22°C
Humidity: 83%
Barometer: 30.06 inHg , 1017.9 hPa
Clouds: Few Clouds
Visibility: 10 miles , 16 km
Cloud details: Few Clouds 6000 ft
Few Clouds 8500 ft
2021/09/19 00:52 KDCA 190052Z 18003KT 10SM FEW060 FEW085 25/22 A3006 RMK AO2 SLP179 T02500217
KFDK - Frederick, Maryland, USA
Distance from station: NNE 33mi, 53km
Updated: Sat, 18-Sep-2021 9:15pm EDT
Clear
Clear
 Wind from calm
Wind: Calm
Temperature: 70°F , 21°C
Dew Point: 70°F , 21°C
Humidity: 100%
Barometer: 30.08 inHg , 1018.6 hPa
Clouds: Clear
Visibility: 10 miles , 16 km
2021/09/19 01:15 KFDK 190115Z AUTO 00000KT 10SM CLR 21/21 A3008 RMK AO2
KOKV - Winchester Rgnl, Virginia, USA
Distance from station: WNW 33mi, 54km
Updated: Sat, 18-Sep-2021 9:15pm EDT
Clear
Clear
 Wind from calm
Wind: Calm
Temperature: 68°F , 20°C
Dew Point: 64°F , 18°C
Humidity: 88%
Barometer: 30.08 inHg , 1018.6 hPa
Clouds: Clear
Visibility: 10 miles , 16 km
2021/09/19 01:15 KOKV 190115Z AUTO 00000KT 10SM CLR 20/18 A3008 RMK AO2
 
KCJR - Culpeper, Virginia, USA
Distance from station: SSW 34mi, 54km
Updated: Sat, 18-Sep-2021 9:15pm EDT
Clear
Clear
 Wind from calm
Wind: Calm
Temperature: 73°F , 23°C
Dew Point: 72°F , 22°C
Humidity: 94%
Barometer: 30.09 inHg , 1019 hPa
Clouds: Clear
Visibility: 10 miles , 16 km
2021/09/19 01:15 KCJR 190115Z AUTO 00000KT 10SM CLR 23/22 A3009 RMK AO2 T02270218
KCGS - College Park, Maryland, USA
Distance from station: E 35mi, 56km
Updated: Sat, 18-Sep-2021 9:15pm EDT
Clear
Clear
 Wind from calm
Wind: Calm
Temperature: 72°F , 22°C
Dew Point: 68°F , 20°C
Humidity: 88%
Barometer: 30.06 inHg , 1017.9 hPa
Clouds: Clear
Visibility: 10 miles , 16 km
2021/09/19 01:15 KCGS 190115Z AUTO 00000KT 10SM CLR 22/20 A3006 RMK AO1 T02150203
KNYG - Quantico Mcaf, Virginia, USA
Distance from station: SSE 35mi, 57km
Updated: Sat, 18-Sep-2021 8:56pm EDT
Mist, Clear
Mist, Clear
 Wind from W
Wind: W 6 mph , 9 km/h
Temperature: 75°F , 24°C
Dew Point: 72°F , 22°C
Humidity: 89%
Barometer: 30.06 inHg , 1017.9 hPa
Summary: Mist
Clouds: Clear
Visibility: 4 miles , 6 km
2021/09/19 00:56 KNYG 190056Z AUTO 28005KT 4SM BR CLR 24/22 A3006 RMK AO2 SLP181 T02440222 $
 
KFRR - Fort Royal, Virginia, USA
Distance from station: W 37mi, 59km
Updated: Sat, 18-Sep-2021 9:15pm EDT
Clear
Clear
 
Temperature: 70°F , 21°C
Dew Point: 70°F , 21°C
Humidity: 100%
Barometer: 30.09 inHg , 1019 hPa
Clouds: Clear
Visibility: 10 miles , 16 km
2021/09/19 01:15 KFRR 190115Z AUTO 10SM CLR 21/21 A3009 RMK AO1
KMRB - Martinsburg, West Virginia, USA
Distance from station: NW 38mi, 61km
Updated: Sat, 18-Sep-2021 8:53pm EDT
Clear
Clear
 Wind from calm
Wind: Calm
Temperature: 70°F , 21°C
Dew Point: 64°F , 18°C
Humidity: 83%
Barometer: 30.08 inHg , 1018.6 hPa
Clouds: Clear
Visibility: 10 miles , 16 km
2021/09/19 00:53 KMRB 190053Z AUTO 00000KT 10SM CLR 21/18 A3008 RMK AO2 SLP181 T02060183
KADW - Andrews Afb, Maryland, USA
Distance from station: ESE 39mi, 63km
Updated: Sat, 18-Sep-2021 8:56pm EDT
Clear
Clear
 Wind from calm
Wind: Calm
Temperature: 73°F , 23°C
Dew Point: 68°F , 20°C
Humidity: 83%
Barometer: 30.05 inHg , 1017.6 hPa
Clouds: Clear
Visibility: 10 miles , 16 km
2021/09/19 00:56 KADW 190056Z AUTO 00000KT 10SM CLR 23/20 A3005 RMK AO2 SLP181 T02270198 $
 
KRMN - Stafford Regnl, Virginia, USA
Distance from station: S 39mi, 63km
Updated: Sat, 18-Sep-2021 9:15pm EDT
Clear
Clear
 Wind from calm
Wind: Calm
Temperature: 73°F , 23°C
Dew Point: 70°F , 21°C
Humidity: 89%
Barometer: 30.11 inHg , 1019.6 hPa
Clouds: Clear
Visibility: 10 miles , 16 km
2021/09/19 01:15 KRMN 190115Z AUTO 00000KT 10SM CLR 23/21 A3011 RMK AO2 T02290207
KFME - Fort Meade, Maryland, USA
Distance from station: ENE 44mi, 70km
Updated: Sat, 18-Sep-2021 9:15pm EDT
Clear
Clear
 Wind from calm
Wind: Calm
Temperature: 70°F , 21°C
Dew Point: 68°F , 20°C
Humidity: 94%
Barometer: 30.09 inHg , 1019 hPa
Clouds: Clear
Visibility: 7 miles , 11 km
2021/09/19 01:15 KFME 190115Z AUTO 00000KT 7SM CLR 21/20 A3009 RMK AO1
KRSP - Nsf Thurmont, Maryland, USA
Distance from station: N 48mi, 77km
Updated: Sat, 18-Sep-2021 8:54pm EDT
Clear
Clear
 Wind from N
Wind: N 5 mph , 7 km/h
Temperature: 72°F , 22°C
Dew Point: 61°F , 16°C
Humidity: 69%
Barometer: 30.15 inHg , 1021 hPa
Clouds: Clear
Visibility: 10 miles , 16 km
2021/09/19 00:54 KRSP 190054Z AUTO 36004KT 10SM CLR 22/16 A3015 RMK AO2 SLP204 T02170156 TSNO PNO $
 
KEZF - Fredericksb/Shan, Virginia, USA
Distance from station: S 48mi, 78km
Updated: Sat, 18-Sep-2021 9:15pm EDT
Clear
Clear
 Wind from calm
Wind: Calm
Temperature: 73°F , 23°C
Dew Point: 73°F , 23°C
Humidity: 100%
Barometer: 30.06 inHg , 1017.9 hPa
Clouds: Clear
Visibility: 10 miles , 16 km
2021/09/19 01:15 KEZF 190115Z AUTO 00000KT 10SM CLR 23/23 A3006 RMK AO2 T02300230
KBWI - Balto/Wash Intl, Maryland, USA
Distance from station: ENE 49mi, 80km
Updated: Sat, 18-Sep-2021 8:54pm EDT
Clear
Clear
 Wind from W
Wind: W 3 mph , 6 km/h
Temperature: 75°F , 24°C
Dew Point: 70°F , 21°C
Humidity: 83%
Barometer: 30.05 inHg , 1017.6 hPa
Clouds: Clear
Visibility: 10 miles , 16 km
2021/09/19 00:54 KBWI 190054Z 28003KT 10SM CLR 24/21 A3005 RMK AO2 SLP174 T02390206